Time;durP1;ratioP1;P1;durP2;ratioP2;P2;SDS_P1;SDS_P2;PMS_P1;PMS_P2;Temp;Humidity;BMP_temperature;BMP_pressure;BME280_temperature;BME280_humidity;BME280_pressure;Samples;Min_cycle;Max_cycle;Signal;HPM_P1;HPM_P2
2023/02/03 00:01:27;;;;;;;6.17;2.00;;;6.50;99.90;;;;;;5049663;28;20484;-76
2023/02/03 00:03:52;;;;;;;3.10;1.37;;;6.50;99.90;;;;;;5049388;28;20902;-75
2023/02/03 00:06:18;;;;;;;3.03;1.50;;;6.60;99.90;;;;;;5058783;28;20387;-75
2023/02/03 00:08:44;;;;;;;2.87;1.57;;;6.50;99.90;;;;;;5069728;28;20387;-75
2023/02/03 00:11:09;;;;;;;2.07;1.23;;;6.60;99.90;;;;;;5069892;28;20388;-76
2023/02/03 00:13:35;;;;;;;3.40;1.30;;;6.50;99.90;;;;;;5069516;28;20387;-76
2023/02/03 00:16:00;;;;;;;1.83;1.30;;;6.50;99.90;;;;;;5060241;28;20480;-75
2023/02/03 00:18:26;;;;;;;2.87;1.57;;;6.60;99.90;;;;;;5053112;28;20409;-76
2023/02/03 00:20:52;;;;;;;3.97;1.58;;;6.50;99.90;;;;;;5053440;28;20494;-75
2023/02/03 00:23:18;;;;;;;4.80;1.27;;;6.50;99.90;;;;;;5053265;28;20378;-75
2023/02/03 00:25:44;;;;;;;2.97;1.05;;;6.60;99.90;;;;;;5053062;28;20443;-75
2023/02/03 00:28:09;;;;;;;2.80;1.30;;;6.50;99.90;;;;;;5053277;28;20392;-75
2023/02/03 00:30:36;;;;;;;2.38;1.20;;;6.50;99.90;;;;;;5052981;28;20894;-75
2023/02/03 00:33:02;;;;;;;3.30;1.40;;;6.60;99.90;;;;;;5052920;28;20389;-75
2023/02/03 00:35:28;;;;;;;3.55;1.25;;;6.50;99.90;;;;;;5052695;28;20432;-75
2023/02/03 00:37:54;;;;;;;4.70;1.30;;;6.50;99.90;;;;;;5052944;28;20440;-75
2023/02/03 00:40:22;;;;;;;2.15;1.40;;;6.50;99.90;;;;;;5052963;28;21036;-75
2023/02/03 00:42:47;;;;;;;2.30;1.20;;;6.50;99.90;;;;;;5035014;28;20397;-75
2023/02/03 00:45:13;;;;;;;3.20;1.40;;;6.50;99.90;;;;;;5052848;28;20385;-75
2023/02/03 00:47:38;;;;;;;3.00;1.50;;;6.50;99.90;;;;;;5034771;28;20398;-75
2023/02/03 00:50:06;;;;;;;2.40;1.20;;;6.40;99.90;;;;;;5052464;28;20394;-75
2023/02/03 00:52:31;;;;;;;4.77;1.60;;;6.40;99.90;;;;;;5052823;28;20416;-75
2023/02/03 00:54:57;;;;;;;1.90;1.10;;;6.40;99.90;;;;;;5052720;28;20382;-75
2023/02/03 00:57:22;;;;;;;2.80;1.30;;;6.50;99.90;;;;;;5052367;28;20405;-75
2023/02/03 00:59:48;;;;;;;4.87;1.60;;;6.50;99.90;;;;;;5052614;28;20387;-75
2023/02/03 01:02:15;;;;;;;3.03;1.40;;;6.50;99.90;;;;;;5052645;28;20377;-75
2023/02/03 01:04:41;;;;;;;2.20;1.35;;;6.40;99.90;;;;;;5052140;28;20894;-76
2023/02/03 01:07:06;;;;;;;3.25;1.30;;;6.40;99.90;;;;;;5068043;28;20454;-75
2023/02/03 01:09:33;;;;;;;2.92;1.60;;;6.50;99.90;;;;;;5052762;28;20405;-75
2023/02/03 01:11:59;;;;;;;2.92;1.20;;;6.50;99.90;;;;;;5052512;28;20388;-75
2023/02/03 01:14:25;;;;;;;2.80;1.60;;;6.40;99.90;;;;;;5052274;28;20461;-75
2023/02/03 01:16:50;;;;;;;4.60;1.20;;;6.50;99.90;;;;;;5034032;28;20488;-75
2023/02/03 01:19:16;;;;;;;2.17;1.17;;;6.40;99.90;;;;;;5052280;28;20381;-75
2023/02/03 01:21:42;;;;;;;2.78;1.13;;;6.50;99.90;;;;;;5034262;28;20378;-75
2023/02/03 01:24:08;;;;;;;3.08;1.40;;;6.50;99.90;;;;;;5051952;28;20389;-75
2023/02/03 01:26:34;;;;;;;5.10;1.20;;;6.50;99.90;;;;;;5032418;28;20399;-75
2023/02/03 01:29:00;;;;;;;2.30;1.35;;;6.50;99.90;;;;;;5052031;28;20914;-75
2023/02/03 01:31:27;;;;;;;4.50;1.60;;;6.50;99.90;;;;;;5051864;28;20393;-75
2023/02/03 01:33:54;;;;;;;1.80;1.20;;;6.50;99.90;;;;;;5051940;28;20389;-75
2023/02/03 01:36:21;;;;;;;3.60;1.00;;;6.50;99.90;;;;;;5051763;28;20863;-76
2023/02/03 01:38:47;;;;;;;2.45;1.40;;;6.40;99.90;;;;;;5051976;28;20408;-75
2023/02/03 01:41:17;;;;;;;3.17;1.23;;;6.50;99.90;;;;;;5051584;28;20849;-75
2023/02/03 01:43:49;;;;;;;3.25;1.50;;;6.50;99.90;;;;;;5033849;28;20469;-75
2023/02/03 01:46:39;;;;;;;3.27;1.40;;;6.50;99.90;;;;;;5033649;28;20389;-74
2023/02/03 01:49:11;;;;;;;3.08;1.20;;;6.50;99.90;;;;;;5034091;28;20456;-74
2023/02/03 01:51:41;;;;;;;5.32;1.40;;;6.50;99.90;;;;;;5051833;28;20397;-74
2023/02/03 01:54:10;;;;;;;5.03;1.40;;;6.50;99.90;;;;;;5051578;28;21078;-74
2023/02/03 01:56:39;;;;;;;3.00;1.20;;;6.50;99.90;;;;;;5050938;28;20409;-74
2023/02/03 01:59:05;;;;;;;1.70;1.15;;;6.50;99.90;;;;;;5051458;28;20428;-74
2023/02/03 02:01:32;;;;;;;4.28;1.20;;;6.40;99.90;;;;;;5051779;28;20835;-77
2023/02/03 02:04:01;;;;;;;2.27;1.10;;;6.50;99.90;;;;;;5051758;28;20850;-75
2023/02/03 02:06:27;;;;;;;3.90;1.65;;;6.50;99.90;;;;;;5061862;28;20384;-75
2023/02/03 02:08:53;;;;;;;2.40;1.20;;;6.40;99.90;;;;;;5052364;28;20393;-75
2023/02/03 02:11:22;;;;;;;3.60;1.27;;;6.50;99.90;;;;;;5051617;28;20385;-75
2023/02/03 02:13:51;;;;;;;3.20;1.48;;;6.40;99.90;;;;;;5051245;28;20470;-75
2023/02/03 02:16:34;;;;;;;2.35;1.30;;;6.40;99.90;;;;;;5032920;28;20399;-76
2023/02/03 02:19:43;;;;;;;2.85;1.30;;;6.30;99.90;;;;;;5050863;28;20389;-75
2023/02/03 02:22:21;;;;;;;5.30;1.55;;;6.30;99.90;;;;;;5051256;28;20381;-74
2023/02/03 02:25:10;;;;;;;4.68;1.63;;;6.30;99.90;;;;;;5051014;28;20851;-75
2023/02/03 02:28:12;;;;;;;2.20;0.90;;;6.30;99.90;;;;;;5032506;28;20789;-75
2023/02/03 02:30:56;;;;;;;1.85;1.27;;;6.30;99.90;;;;;;5050790;28;20403;-75
2023/02/03 02:33:33;;;;;;;3.42;1.23;;;6.40;99.90;;;;;;5050943;28;20424;-75
2023/02/03 02:36:21;;;;;;;2.90;1.40;;;6.40;99.90;;;;;;5050429;28;20382;-75
2023/02/03 02:39:06;;;;;;;4.53;1.20;;;6.30;99.90;;;;;;5032605;28;20409;-75
2023/02/03 02:41:41;;;;;;;3.00;1.60;;;6.40;99.90;;;;;;5050607;28;20405;-75
2023/02/03 02:44:17;;;;;;;2.67;1.30;;;6.30;99.90;;;;;;5032238;28;20824;-75
2023/02/03 02:46:48;;;;;;;6.97;2.10;;;6.40;99.90;;;;;;5012708;28;20399;-75
2023/02/03 02:49:49;;;;;;;2.95;1.40;;;6.40;99.90;;;;;;5030842;28;20881;-75
2023/02/03 02:52:17;;;;;;;3.70;1.15;;;6.40;99.90;;;;;;5030687;28;20412;-75
2023/02/03 02:54:47;;;;;;;2.03;1.00;;;6.40;99.90;;;;;;5030529;28;20383;-76
2023/02/03 02:57:14;;;;;;;2.78;1.27;;;6.40;99.90;;;;;;5030272;28;20468;-75
2023/02/03 02:59:40;;;;;;;2.17;1.33;;;6.30;99.90;;;;;;5038769;28;20423;-75
2023/02/03 03:02:05;;;;;;;3.13;1.15;;;6.30;99.90;;;;;;5050553;28;20464;-75
2023/02/03 03:04:32;;;;;;;2.57;1.40;;;6.20;99.90;;;;;;5098745;22;20493;-73
2023/02/03 03:07:12;;;;;;;4.30;1.20;;;6.20;99.90;;;;;;5105325;28;20464;-71
2023/02/03 03:09:46;;;;;;;4.57;1.23;;;6.10;99.90;;;;;;5092753;28;20431;-73
2023/02/03 03:12:36;;;;;;;1.70;1.20;;;6.10;99.90;;;;;;5111152;28;20376;-72
2023/02/03 03:15:13;;;;;;;2.60;1.20;;;6.10;99.90;;;;;;5093069;28;20496;-72
2023/02/03 03:17:44;;;;;;;3.30;1.50;;;6.00;99.90;;;;;;5090256;28;20882;-72
2023/02/03 03:20:21;;;;;;;2.70;1.10;;;6.00;99.90;;;;;;5090527;28;20402;-72
2023/02/03 03:22:54;;;;;;;2.50;1.20;;;6.10;99.90;;;;;;5090637;28;20457;-72
2023/02/03 03:25:26;;;;;;;3.72;1.20;;;6.00;99.90;;;;;;5072101;28;20871;-73
2023/02/03 03:27:57;;;;;;;1.65;1.00;;;6.00;99.90;;;;;;5090526;28;20390;-73
2023/02/03 03:30:28;;;;;;;3.15;1.25;;;6.00;99.90;;;;;;5090035;28;20485;-72
2023/02/03 03:32:55;;;;;;;2.55;1.17;;;6.00;99.90;;;;;;5090304;28;20832;-72
2023/02/03 03:35:23;;;;;;;3.03;1.20;;;6.00;99.90;;;;;;5090271;28;20389;-72
2023/02/03 03:38:15;;;;;;;1.40;1.20;;;6.00;99.90;;;;;;5090234;28;20462;-72
2023/02/03 03:40:47;;;;;;;2.60;1.60;;;6.00;99.90;;;;;;5090305;28;20925;-72
2023/02/03 03:43:20;;;;;;;2.70;1.00;;;6.00;99.90;;;;;;5071972;28;20462;-72
2023/02/03 03:45:57;;;;;;;3.20;1.40;;;5.90;99.90;;;;;;5071515;28;20425;-72
2023/02/03 03:48:41;;;;;;;3.73;1.33;;;6.00;99.90;;;;;;5090250;28;20886;-73
2023/02/03 03:51:22;;;;;;;2.30;1.20;;;6.00;99.90;;;;;;5094109;28;20972;-73
2023/02/03 03:53:50;;;;;;;2.00;1.00;;;6.00;99.90;;;;;;5094296;28;20386;-72
2023/02/03 03:56:22;;;;;;;2.45;1.30;;;6.10;99.90;;;;;;5094021;28;20382;-72
2023/02/03 03:58:51;;;;;;;2.30;1.40;;;6.00;99.90;;;;;;5094018;28;20443;-72
2023/02/03 04:01:17;;;;;;;2.97;1.30;;;6.00;99.90;;;;;;5094104;28;20389;-72
2023/02/03 04:03:49;;;;;;;2.28;1.20;;;6.10;99.90;;;;;;5093764;28;20436;-72
2023/02/03 04:06:14;;;;;;;2.13;1.40;;;6.10;99.90;;;;;;5095819;28;20400;-72
2023/02/03 04:08:40;;;;;;;2.40;1.40;;;6.20;99.90;;;;;;5094149;28;20377;-73
2023/02/03 04:11:06;;;;;;;4.30;1.60;;;6.10;99.90;;;;;;5075795;28;20386;-72
2023/02/03 04:13:32;;;;;;;3.67;1.38;;;6.10;99.90;;;;;;5094130;28;20855;-73
2023/02/03 04:15:57;;;;;;;2.50;1.20;;;6.10;99.90;;;;;;5093873;28;20439;-72
2023/02/03 04:18:23;;;;;;;2.60;1.47;;;6.10;99.90;;;;;;5075509;28;20431;-73
2023/02/03 04:20:49;;;;;;;2.10;1.60;;;6.00;99.90;;;;;;5093874;28;20488;-73
2023/02/03 04:23:15;;;;;;;2.25;1.50;;;6.00;99.90;;;;;;5093962;28;20816;-73
2023/02/03 04:25:40;;;;;;;2.97;1.30;;;6.00;99.90;;;;;;5093534;28;20386;-73
2023/02/03 04:28:06;;;;;;;1.90;1.30;;;6.00;99.90;;;;;;5075580;28;20721;-73
2023/02/03 04:30:31;;;;;;;3.67;1.70;;;6.00;99.90;;;;;;5093652;28;20386;-73
2023/02/03 04:32:57;;;;;;;2.87;1.40;;;6.10;99.90;;;;;;5093518;28;20470;-73
2023/02/03 04:35:23;;;;;;;4.47;1.40;;;6.10;99.90;;;;;;5093549;28;20385;-73
2023/02/03 04:37:48;;;;;;;3.25;1.48;;;6.10;99.90;;;;;;5093112;28;20405;-72
2023/02/03 04:40:14;;;;;;;2.70;1.57;;;6.20;99.90;;;;;;5093698;28;20382;-73
2023/02/03 04:42:40;;;;;;;1.57;1.10;;;6.20;99.90;;;;;;5093599;28;20374;-73
2023/02/03 04:45:08;;;;;;;2.20;1.20;;;6.20;99.90;;;;;;5093363;28;20380;-73
2023/02/03 04:47:33;;;;;;;3.00;1.10;;;6.20;99.90;;;;;;5093054;28;20891;-73
2023/02/03 04:49:59;;;;;;;4.30;0.98;;;6.20;99.90;;;;;;5093214;28;20474;-71
2023/02/03 04:52:25;;;;;;;2.88;1.20;;;6.30;99.90;;;;;;5092766;28;20398;-70
2023/02/03 04:54:50;;;;;;;4.70;1.10;;;6.30;99.90;;;;;;5093338;28;20401;-72
2023/02/03 04:57:16;;;;;;;2.40;1.10;;;6.30;99.90;;;;;;5092879;28;20448;-72
2023/02/03 04:59:41;;;;;;;3.15;1.30;;;6.30;99.90;;;;;;5092936;28;20374;-71
2023/02/03 05:02:07;;;;;;;2.55;1.10;;;6.30;99.90;;;;;;5092597;28;20386;-71
2023/02/03 05:04:33;;;;;;;2.03;1.15;;;6.30;99.90;;;;;;5093024;28;20775;-72
2023/02/03 05:06:58;;;;;;;4.50;1.20;;;6.30;99.90;;;;;;5107838;28;20381;-72
2023/02/03 05:09:25;;;;;;;2.13;1.00;;;6.30;99.90;;;;;;5095167;28;20387;-72
2023/02/03 05:11:51;;;;;;;2.70;1.50;;;6.30;99.90;;;;;;5113334;28;20474;-72
2023/02/03 05:14:16;;;;;;;6.18;1.30;;;6.30;99.90;;;;;;5111659;28;20811;-72
2023/02/03 05:16:42;;;;;;;1.37;1.20;;;6.30;99.90;;;;;;5074391;28;20531;-72
2023/02/03 05:19:08;;;;;;;3.20;1.40;;;6.30;99.90;;;;;;5092976;28;20443;-72
2023/02/03 05:21:33;;;;;;;2.13;1.30;;;6.30;99.90;;;;;;5092816;28;20721;-71
2023/02/03 05:23:59;;;;;;;3.00;1.80;;;6.30;99.90;;;;;;5092807;28;20382;-72
2023/02/03 05:26:24;;;;;;;2.90;1.60;;;6.30;99.90;;;;;;5092335;28;20435;-72
2023/02/03 05:28:50;;;;;;;3.83;1.50;;;6.30;99.90;;;;;;5092354;28;20388;-73
2023/02/03 05:31:16;;;;;;;2.17;1.20;;;6.40;99.90;;;;;;5092395;28;20446;-72
2023/02/03 05:33:41;;;;;;;2.87;1.50;;;6.30;99.90;;;;;;5074042;28;20390;-72
2023/02/03 05:36:07;;;;;;;2.85;1.23;;;6.40;99.90;;;;;;5091594;28;20453;-72
2023/02/03 05:38:33;;;;;;;2.72;1.40;;;6.40;99.90;;;;;;5092322;28;20470;-72
2023/02/03 05:43:42;;;;;;;4.80;1.40;;;6.40;99.90;;;;;;5092170;28;20432;-73
2023/02/03 05:46:08;;;;;;;3.97;1.50;;;6.40;99.90;;;;;;5091673;28;20398;-73
2023/02/03 05:48:33;;;;;;;2.20;1.73;;;6.50;99.90;;;;;;5092350;28;20378;-73
2023/02/03 05:50:59;;;;;;;3.43;1.50;;;6.50;99.90;;;;;;5092302;28;20378;-73
2023/02/03 05:53:26;;;;;;;3.50;1.40;;;6.50;99.90;;;;;;5092184;28;20436;-72
2023/02/03 05:55:51;;;;;;;4.97;1.55;;;6.50;99.90;;;;;;5091826;28;20401;-72
2023/02/03 05:58:17;;;;;;;3.60;1.43;;;6.50;99.90;;;;;;5091775;28;20402;-72
2023/02/03 06:00:42;;;;;;;3.10;1.70;;;6.50;99.90;;;;;;5092141;28;20382;-72
2023/02/03 06:03:08;;;;;;;4.97;1.37;;;6.50;99.90;;;;;;5091835;28;20378;-72
2023/02/03 06:05:36;;;;;;;4.87;1.70;;;6.50;99.90;;;;;;5094895;28;20470;-72
2023/02/03 06:08:02;;;;;;;3.92;1.60;;;6.50;99.90;;;;;;5112202;28;20459;-73
2023/02/03 06:10:27;;;;;;;5.55;2.10;;;6.50;99.90;;;;;;5112058;28;20521;-73
2023/02/03 06:12:53;;;;;;;3.20;1.30;;;6.50;99.90;;;;;;5103797;28;20759;-73
2023/02/03 06:15:19;;;;;;;2.90;2.10;;;6.50;99.90;;;;;;5091520;28;20405;-72
2023/02/03 06:17:48;;;;;;;2.65;1.58;;;6.50;99.90;;;;;;5091544;28;20406;-72
2023/02/03 06:20:16;;;;;;;2.63;1.60;;;6.60;99.90;;;;;;5091665;28;20393;-73
2023/02/03 06:22:41;;;;;;;5.80;1.60;;;6.50;99.90;;;;;;5091589;28;20460;-72
2023/02/03 06:25:07;;;;;;;4.50;1.50;;;6.60;99.90;;;;;;5072671;28;20414;-71
2023/02/03 06:27:33;;;;;;;2.90;1.60;;;6.50;99.90;;;;;;5091002;28;20390;-73
2023/02/03 06:29:58;;;;;;;2.78;1.42;;;6.50;99.90;;;;;;5091248;28;20896;-73
2023/02/03 06:32:24;;;;;;;4.07;1.60;;;6.50;99.90;;;;;;5091409;28;20435;-72
2023/02/03 06:34:49;;;;;;;3.40;1.30;;;6.50;99.90;;;;;;5090378;28;20740;-72
2023/02/03 06:37:15;;;;;;;2.77;1.63;;;6.40;99.90;;;;;;5090992;28;20429;-73
2023/02/03 06:39:41;;;;;;;3.35;1.70;;;6.40;99.90;;;;;;5091139;28;20385;-73
2023/02/03 06:42:06;;;;;;;3.40;1.80;;;6.50;99.90;;;;;;5090379;28;20416;-73
2023/02/03 06:44:32;;;;;;;3.80;1.60;;;6.40;99.90;;;;;;5090568;28;20773;-73
2023/02/03 06:46:58;;;;;;;3.00;1.50;;;6.40;99.90;;;;;;5072582;28;20875;-73
2023/02/03 06:49:23;;;;;;;2.20;1.40;;;6.40;99.90;;;;;;5091045;28;20366;-73
2023/02/03 06:51:49;;;;;;;2.87;1.47;;;6.40;99.90;;;;;;5091193;28;20617;-73
2023/02/03 06:54:14;;;;;;;4.07;1.93;;;6.50;99.90;;;;;;5090356;28;20398;-73
2023/02/03 06:56:40;;;;;;;3.37;1.80;;;6.50;99.90;;;;;;5090613;28;20393;-72
2023/02/03 06:59:07;;;;;;;3.90;1.50;;;6.40;99.90;;;;;;5090856;28;20425;-73
2023/02/03 07:01:33;;;;;;;2.80;1.50;;;6.50;99.90;;;;;;5072812;28;20386;-73
2023/02/03 07:03:58;;;;;;;5.03;1.80;;;6.40;99.90;;;;;;5090639;28;20397;-73
2023/02/03 07:06:29;;;;;;;4.20;1.90;;;6.40;99.90;;;;;;5082565;28;20832;-73
2023/02/03 07:08:55;;;;;;;3.40;1.60;;;6.30;99.90;;;;;;5076853;28;20397;-73
2023/02/03 07:11:21;;;;;;;2.45;1.35;;;6.40;99.90;;;;;;5090703;28;20484;-73
2023/02/03 07:13:47;;;;;;;4.30;1.85;;;6.30;99.90;;;;;;5090874;28;20899;-73
2023/02/03 07:16:13;;;;;;;3.50;1.60;;;6.30;99.90;;;;;;5090745;28;20820;-73
2023/02/03 07:18:38;;;;;;;2.70;1.83;;;6.40;99.90;;;;;;5090438;28;20406;-73
2023/02/03 07:21:05;;;;;;;4.57;1.60;;;6.40;99.90;;;;;;5090857;28;20405;-73
2023/02/03 07:23:31;;;;;;;2.30;1.40;;;6.40;99.90;;;;;;5090382;28;20520;-73
2023/02/03 07:26:01;;;;;;;3.27;1.70;;;6.40;99.90;;;;;;5090499;28;20484;-73
2023/02/03 07:28:27;;;;;;;5.05;1.90;;;6.50;99.90;;;;;;5090567;28;20377;-73
2023/02/03 07:30:53;;;;;;;2.67;1.50;;;6.50;99.90;;;;;;5090393;28;20455;-72
2023/02/03 07:33:19;;;;;;;2.20;1.50;;;6.50;99.90;;;;;;5090587;28;20381;-73
2023/02/03 07:35:53;;;;;;;3.05;1.83;;;6.50;99.90;;;;;;5090669;28;20420;-73
2023/02/03 07:38:19;;;;;;;4.75;1.95;;;6.50;99.90;;;;;;5090461;28;20759;-73
2023/02/03 07:40:45;;;;;;;3.10;1.60;;;6.50;99.90;;;;;;5090661;28;20980;-72
2023/02/03 07:43:10;;;;;;;3.30;1.80;;;6.50;99.90;;;;;;5090533;28;20382;-73
2023/02/03 07:45:37;;;;;;;2.72;1.73;;;6.50;99.90;;;;;;5090060;28;20394;-73
2023/02/03 07:48:03;;;;;;;2.40;1.65;;;6.50;99.90;;;;;;5090556;28;20410;-72
2023/02/03 07:50:28;;;;;;;2.60;1.60;;;6.50;99.90;;;;;;5090180;28;20475;-72
2023/02/03 07:52:54;;;;;;;6.18;1.83;;;6.50;99.90;;;;;;5089894;28;20402;-72
2023/02/03 07:55:21;;;;;;;4.50;1.73;;;6.60;99.90;;;;;;5090338;28;20382;-73
2023/02/03 07:57:46;;;;;;;6.43;2.20;;;6.70;99.90;;;;;;5090293;28;20406;-73
2023/02/03 08:00:14;;;;;;;3.60;1.53;;;6.70;99.90;;;;;;5090276;28;20382;-73
2023/02/03 08:02:43;;;;;;;3.33;1.50;;;6.70;99.90;;;;;;5089827;28;20384;-73
2023/02/03 08:05:10;;;;;;;3.00;1.60;;;6.70;99.90;;;;;;5071688;28;20426;-73
2023/02/03 08:07:36;;;;;;;2.63;1.83;;;6.70;99.90;;;;;;5109399;28;20837;-73
2023/02/03 08:10:02;;;;;;;3.97;1.55;;;6.80;99.90;;;;;;5090253;28;20469;-73
2023/02/03 08:12:27;;;;;;;4.40;1.80;;;6.70;99.90;;;;;;5090218;28;20388;-73
2023/02/03 08:14:53;;;;;;;3.27;1.70;;;6.80;99.90;;;;;;5072248;28;20386;-73
2023/02/03 08:17:18;;;;;;;3.00;2.10;;;6.80;99.90;;;;;;5071675;28;20907;-73
2023/02/03 08:19:44;;;;;;;4.00;1.50;;;6.80;99.90;;;;;;5089931;28;20382;-73
2023/02/03 08:22:14;;;;;;;4.25;1.80;;;7.00;99.90;;;;;;5089951;28;20382;-72
2023/02/03 08:24:44;;;;;;;5.43;1.98;;;6.90;99.90;;;;;;5089738;28;20951;-72
2023/02/03 08:27:15;;;;;;;1.70;1.27;;;6.90;99.90;;;;;;5089289;28;20477;-72
2023/02/03 08:29:42;;;;;;;4.30;1.80;;;6.90;99.90;;;;;;5089921;28;20414;-73
2023/02/03 08:32:16;;;;;;;3.90;1.40;;;7.00;99.90;;;;;;5089624;28;20390;-71
2023/02/03 08:34:42;;;;;;;3.10;1.35;;;7.00;99.90;;;;;;5089668;28;20393;-72
2023/02/03 08:37:09;;;;;;;2.97;1.35;;;7.00;99.90;;;;;;5092558;28;20776;-72
2023/02/03 08:39:35;;;;;;;3.90;1.50;;;6.90;99.90;;;;;;5075101;28;20461;-72
2023/02/03 08:42:02;;;;;;;5.22;1.40;;;6.90;99.90;;;;;;5093701;28;20512;-72
2023/02/03 08:44:29;;;;;;;3.28;1.52;;;7.00;99.90;;;;;;5073039;28;20423;-72
2023/02/03 08:46:54;;;;;;;2.28;1.60;;;6.90;99.90;;;;;;5091875;28;20390;-72
2023/02/03 08:49:20;;;;;;;3.47;1.90;;;6.90;99.90;;;;;;5074523;28;20414;-72
2023/02/03 08:51:46;;;;;;;4.22;1.50;;;7.00;99.90;;;;;;5093451;28;20386;-72
2023/02/03 08:54:13;;;;;;;3.45;2.00;;;7.00;99.90;;;;;;5093429;28;20413;-72
2023/02/03 08:56:38;;;;;;;2.60;1.42;;;7.10;99.90;;;;;;5093058;28;20389;-72
2023/02/03 08:59:04;;;;;;;3.33;2.10;;;7.10;99.90;;;;;;5075004;28;20405;-71
2023/02/03 09:01:30;;;;;;;2.47;1.30;;;7.20;99.90;;;;;;5075293;28;20902;-72
2023/02/03 09:03:56;;;;;;;3.72;1.60;;;7.30;99.90;;;;;;5093791;22;20520;-75
2023/02/03 09:06:22;;;;;;;4.13;1.60;;;7.30;99.90;;;;;;5032447;28;20387;-75
2023/02/03 09:08:47;;;;;;;2.90;1.65;;;7.40;99.90;;;;;;5033205;28;20386;-75
2023/02/03 09:11:16;;;;;;;2.50;1.60;;;7.60;99.90;;;;;;5015480;28;20470;-77
2023/02/03 09:13:44;;;;;;;4.53;1.60;;;7.50;99.90;;;;;;5032736;28;20397;-76
2023/02/03 09:16:11;;;;;;;3.35;1.70;;;7.40;99.90;;;;;;5032515;28;20399;-75
2023/02/03 09:18:36;;;;;;;3.72;1.90;;;7.50;99.90;;;;;;5014986;28;20415;-75
2023/02/03 09:21:10;;;;;;;2.83;1.17;;;7.40;99.90;;;;;;5015088;28;20798;-76
2023/02/03 09:23:35;;;;;;;4.50;2.00;;;7.30;99.90;;;;;;5029520;28;20759;-77
2023/02/03 09:26:06;;;;;;;5.72;1.83;;;7.40;99.90;;;;;;5032093;28;20379;-75
2023/02/03 09:28:32;;;;;;;2.63;1.60;;;7.40;99.90;;;;;;5032277;28;20430;-75
2023/02/03 09:31:05;;;;;;;3.72;1.60;;;7.40;99.90;;;;;;5032765;28;20394;-76
2023/02/03 09:33:30;;;;;;;3.75;1.80;;;7.40;99.90;;;;;;5032719;28;20399;-76
2023/02/03 09:35:56;;;;;;;4.00;1.80;;;7.30;99.90;;;;;;5032366;28;20426;-75
2023/02/03 09:38:23;;;;;;;2.45;1.98;;;7.40;99.90;;;;;;5032710;28;20472;-74
2023/02/03 09:40:54;;;;;;;3.55;1.50;;;7.40;99.90;;;;;;5032654;28;20394;-74
2023/02/03 09:43:41;;;;;;;3.42;1.70;;;7.40;99.90;;;;;;5032611;28;20431;-74
2023/02/03 09:46:28;;;;;;;3.20;1.80;;;7.30;99.90;;;;;;5031995;28;20383;-74
2023/02/03 09:49:05;;;;;;;2.63;1.80;;;7.20;99.90;;;;;;5031868;28;20395;-75
2023/02/03 09:51:45;;;;;;;3.20;1.80;;;7.20;99.90;;;;;;5032184;28;20422;-74
2023/02/03 09:54:29;;;;;;;4.28;1.50;;;7.20;99.90;;;;;;5032531;28;20430;-75
2023/02/03 09:56:59;;;;;;;3.00;1.80;;;7.10;99.90;;;;;;5014485;28;20390;-76
2023/02/03 09:59:25;;;;;;;3.50;1.63;;;7.00;99.90;;;;;;5014822;28;20422;-76
2023/02/03 10:01:58;;;;;;;4.18;1.70;;;7.10;99.90;;;;;;5014603;28;20386;-76
2023/02/03 10:04:32;;;;;;;3.08;1.80;;;7.00;99.90;;;;;;5031872;28;20766;-77
2023/02/03 10:07:13;;;;;;;4.03;1.70;;;7.10;99.90;;;;;;5037339;28;20430;-76
2023/02/03 10:09:46;;;;;;;4.25;1.90;;;7.20;99.90;;;;;;5012460;28;20404;-76
2023/02/03 10:12:51;;;;;;;3.00;1.50;;;7.20;99.90;;;;;;5031067;28;20386;-76
2023/02/03 10:15:29;;;;;;;1.35;1.00;;;7.10;99.90;;;;;;4996745;28;20379;-76
2023/02/03 10:18:11;;;;;;;2.60;1.60;;;7.30;99.90;;;;;;5014240;28;20417;-73
2023/02/03 10:20:45;;;;;;;2.03;1.48;;;7.50;99.90;;;;;;5032062;28;20820;-73
2023/02/03 10:23:15;;;;;;;3.60;1.60;;;7.80;99.90;;;;;;5031661;28;20430;-74
2023/02/03 10:25:48;;;;;;;2.50;1.50;;;8.00;99.90;;;;;;5031789;28;20403;-73
2023/02/03 10:28:19;;;;;;;5.17;1.70;;;8.00;99.90;;;;;;5031522;28;20896;-75
2023/02/03 10:30:52;;;;;;;1.70;1.25;;;7.90;99.90;;;;;;5031676;28;20474;-75
2023/02/03 10:33:19;;;;;;;2.80;1.38;;;7.90;99.90;;;;;;5013713;28;20399;-75
2023/02/03 10:36:04;;;;;;;4.57;1.50;;;8.00;99.90;;;;;;5029925;28;20796;-75
2023/02/03 10:38:53;;;;;;;1.73;1.40;;;7.90;99.90;;;;;;5030453;28;20413;-75
2023/02/03 10:41:19;;;;;;;2.00;1.10;;;8.00;99.90;;;;;;5013746;28;20375;-74
2023/02/03 10:43:46;;;;;;;1.90;1.30;;;8.10;99.90;;;;;;5030803;28;20395;-74
2023/02/03 10:46:15;;;;;;;2.00;1.27;;;8.20;99.90;;;;;;5030601;28;20399;-75
2023/02/03 10:48:40;;;;;;;3.00;1.70;;;8.20;99.90;;;;;;5030923;28;20403;-75
2023/02/03 10:51:18;;;;;;;3.13;1.70;;;8.30;99.90;;;;;;5013199;28;20388;-75
2023/02/03 10:53:45;;;;;;;2.22;1.40;;;8.20;99.90;;;;;;5030884;28;20405;-75
2023/02/03 10:56:13;;;;;;;4.70;1.67;;;8.10;99.90;;;;;;5030570;28;20816;-74
2023/02/03 10:58:56;;;;;;;2.85;1.50;;;8.10;99.90;;;;;;5029698;28;20456;-75
2023/02/03 11:01:25;;;;;;;5.07;1.58;;;8.00;99.90;;;;;;5029757;28;20383;-75
2023/02/03 11:04:02;;;;;;;3.95;1.90;;;8.10;99.90;;;;;;5028773;28;20403;-75
2023/02/03 11:06:28;;;;;;;4.80;1.70;;;8.10;99.90;;;;;;5025413;28;20474;-76
2023/02/03 11:08:54;;;;;;;2.38;1.38;;;8.20;99.90;;;;;;5031083;28;20416;-77
2023/02/03 11:11:26;;;;;;;3.20;1.67;;;8.10;99.90;;;;;;5030074;28;20975;-77
2023/02/03 11:14:15;;;;;;;2.13;1.60;;;8.20;99.90;;;;;;5030698;28;20395;-76
2023/02/03 11:16:41;;;;;;;1.87;1.40;;;8.40;99.90;;;;;;5012612;28;20411;-76
2023/02/03 11:19:17;;;;;;;2.13;1.40;;;8.50;99.90;;;;;;5013113;28;20826;-75
2023/02/03 11:21:48;;;;;;;3.45;1.40;;;8.50;99.90;;;;;;5012979;28;20379;-74
2023/02/03 11:24:20;;;;;;;1.90;1.25;;;8.50;99.90;;;;;;5030819;28;20379;-75
2023/02/03 11:26:50;;;;;;;3.00;1.30;;;8.40;99.90;;;;;;5030201;28;20387;-74
2023/02/03 11:29:23;;;;;;;1.77;1.60;;;8.20;99.90;;;;;;5030654;28;20399;-75
2023/02/03 11:31:52;;;;;;;2.70;1.58;;;8.40;99.90;;;;;;5030265;28;20897;-74
2023/02/03 11:34:29;;;;;;;3.92;1.50;;;8.40;99.90;;;;;;5030583;28;20398;-75
2023/02/03 11:36:55;;;;;;;2.92;1.38;;;8.50;99.90;;;;;;5030105;28;20383;-75
2023/02/03 11:39:26;;;;;;;1.70;1.35;;;8.60;99.90;;;;;;5030659;28;20390;-75
2023/02/03 11:41:52;;;;;;;1.70;1.02;;;8.70;99.90;;;;;;5030489;28;20814;-76
2023/02/03 11:44:23;;;;;;;1.00;0.85;;;8.60;99.90;;;;;;5012894;28;20391;-75
2023/02/03 11:46:54;;;;;;;1.70;0.80;;;8.70;99.90;;;;;;5029710;28;20985;-76
2023/02/03 11:50:01;;;;;;;1.75;0.80;;;8.80;99.90;;;;;;5030615;28;20390;-76
2023/02/03 11:52:39;;;;;;;1.23;0.77;;;8.70;99.90;;;;;;5012773;28;20398;-76
2023/02/03 11:55:36;;;;;;;0.90;0.70;;;8.70;99.90;;;;;;5030441;28;20379;-75
2023/02/03 11:58:36;;;;;;;1.80;1.00;;;8.60;99.90;;;;;;5031102;28;20457;-75
2023/02/03 12:01:14;;;;;;;1.40;0.80;;;8.60;99.90;;;;;;5030526;28;20723;-75
2023/02/03 12:03:56;;;;;;;1.10;0.70;;;8.60;99.90;;;;;;5030393;28;20441;-75
2023/02/03 12:06:43;;;;;;;2.03;0.80;;;8.60;99.90;;;;;;5029204;28;20765;-75
2023/02/03 12:09:27;;;;;;;1.90;0.80;;;8.60;99.90;;;;;;5024331;28;20478;-76
2023/02/03 12:12:19;;;;;;;1.13;0.77;;;8.60;99.90;;;;;;5033440;28;20490;-75
2023/02/03 12:15:00;;;;;;;0.60;0.50;;;8.60;99.90;;;;;;5033946;28;20383;-75
2023/02/03 12:17:37;;;;;;;2.70;1.00;;;8.70;99.90;;;;;;5033222;28;20749;-74
2023/02/03 12:20:34;;;;;;;0.88;0.70;;;8.90;99.90;;;;;;5033856;28;20773;-75
2023/02/03 12:23:12;;;;;;;1.35;0.80;;;8.90;99.90;;;;;;5033619;28;20399;-74
2023/02/03 12:26:22;;;;;;;0.70;0.60;;;8.90;99.90;;;;;;5033624;28;20380;-75
2023/02/03 12:29:04;;;;;;;0.90;0.50;;;9.00;99.90;;;;;;5011005;28;20490;-75
2023/02/03 12:31:43;;;;;;;2.20;0.70;;;9.00;99.90;;;;;;5033467;28;20921;-75
2023/02/03 12:34:17;;;;;;;1.10;0.67;;;9.20;99.90;;;;;;5033499;28;20839;-75
2023/02/03 12:37:02;;;;;;;1.25;0.80;;;9.00;99.90;;;;;;5033058;28;20398;-76
2023/02/03 12:39:43;;;;;;;3.25;1.02;;;9.00;99.90;;;;;;5033644;28;20391;-75
2023/02/03 12:42:17;;;;;;;0.82;0.60;;;8.90;99.90;;;;;;5033390;28;20375;-76
2023/02/03 12:44:46;;;;;;;1.08;0.80;;;8.90;99.90;;;;;;5033276;28;20375;-76
2023/02/03 12:47:24;;;;;;;1.90;1.10;;;8.80;99.90;;;;;;5032993;28;20485;-76
2023/02/03 12:49:55;;;;;;;2.50;1.10;;;8.70;99.90;;;;;;5033264;28;20394;-75
2023/02/03 12:52:37;;;;;;;1.83;0.80;;;8.70;99.90;;;;;;5032949;28;20482;-75
2023/02/03 12:55:24;;;;;;;1.30;0.60;;;8.80;99.90;;;;;;5033287;28;20431;-76
2023/02/03 12:58:08;;;;;;;1.00;0.80;;;8.70;99.90;;;;;;5032995;28;20446;-75
2023/02/03 13:00:44;;;;;;;1.20;0.90;;;8.80;99.90;;;;;;5033222;28;20383;-75
2023/02/03 13:03:25;;;;;;;1.00;0.90;;;8.80;99.90;;;;;;5033151;28;20382;-76
2023/02/03 13:06:14;;;;;;;2.83;0.90;;;8.60;99.90;;;;;;5014736;28;20399;-74
2023/02/03 13:08:58;;;;;;;1.50;1.00;;;8.60;99.90;;;;;;5033068;28;20390;-74
2023/02/03 13:12:02;;;;;;;1.38;0.90;;;8.60;99.90;;;;;;5031505;28;20387;-74
2023/02/03 13:14:39;;;;;;;1.50;0.90;;;8.50;99.90;;;;;;5011830;28;20405;-75
2023/02/03 13:17:13;;;;;;;1.50;1.20;;;8.50;99.90;;;;;;5031960;28;20449;-74
2023/02/03 13:19:50;;;;;;;1.80;1.00;;;8.40;99.90;;;;;;5032725;28;20376;-74